Corona, CA

4:48 PM PDT on July 30, 2016 (GMT -0700)
APRSWXNET | | Change Station

Elev 3093 ft 33.85 °N, 117.65 °W | Updated 47 minutes ago

Clear
Clear
79 °F
Feels Like 80 °F
N
18
Wind Variable Wind from SSW
Gusts 0.0 mph

Today
High -- | Low -- °F
--% Chance of Precip.
Yesterday
High -- | Low -- °F
Precip. -- in
Pressure 29.80 in
Visibility 10.0 miles
Clouds Clear
Heat Index 80 °F
Dew Point 60 °F
Humidity 53%
Rainfall in
Snow Depth Not available.
6:01 AM 7:52 PM
Waning Crescent, 10% visible
METAR KAJO 302256Z AUTO 28014G20KT 10SM CLR 34/21 A2979 RMK AO2 SLP090 T03390206 $
Pressure 29.80 in
Visibility 10.0 miles
Clouds Clear
Heat Index 80 °F
Dew Point 60 °F
Humidity 53%
Rainfall in
Snow Depth Not available.
6:01 AM 7:52 PM
Waning Crescent, 10% visible
METAR KAJO 302256Z AUTO 28014G20KT 10SM CLR 34/21 A2979 RMK AO2 SLP090 T03390206 $

10-Day Weather Forecast

Almanac

Astronomy

Jul. 30, 2016 Rise Set
Actual Time
Civil Twilight
Nautical Twilight
Astronomical Twilight
Moon
Length of Visible Light
Length of Day
Tomorrow will be .
, % of the Moon is Illuminated

Today's Extremes

State Highs State Lows

Community

WunderPhotos

Upload Photos

1,928,680 photos uploaded!

WunderBlog® & News

Nearby

Air Quality

  Air Quality AQ Index Pollutant
Not available.

Snow Depth

Station Depth Elevation

Earthquake Activity

City Distance Mag. Time & Date
Minimum magnitude displayed is 2.5.

Coastal Water Temperatures

Place Temperature

Stations

Nearby Weather Stations

Station Location Temp. Windchill Dew Point Humidity Wind Precip. Elev Updated Type
                   

Watches & Warnings

Flood Watch / Flood Statement
Issued: 4:35 PM PDT Jul. 30, 2016 – National Weather Service

... The Flood Advisory has been cancelled for San Bernardino and
Riverside counties...

The heavy rain has ended and flooding is now longer expected to be a
threat.


Lat... Lon 3440 11674 3432 11659 3420 11653 3410 11658
      3410 11660 3405 11661 3398 11665 3396 11679
      3399 11697 3433 11701 3442 11691


Albright